Time;durP1;ratioP1;P1;durP2;ratioP2;P2;SDS_P1;SDS_P2;PMS_P1;PMS_P2;Temp;Humidity;BMP_temperature;BMP_pressure;BME280_temperature;BME280_humidity;BME280_pressure;Samples;Min_cycle;Max_cycle;Signal;HPM_P1;HPM_P2
2023/07/10 00:14:39;;;;;;;5.07;4.20;;;22.70;99.90;;;;;;5079634;22;20250;-77
2023/07/10 00:17:08;;;;;;;4.53;3.70;;;22.60;99.90;;;;;;5006260;28;20624;-76
2023/07/10 00:19:35;;;;;;;4.80;3.80;;;22.60;99.90;;;;;;5009547;28;20262;-76
2023/07/10 00:22:02;;;;;;;3.67;3.27;;;22.60;99.90;;;;;;5025108;28;20284;-77
2023/07/10 00:24:29;;;;;;;5.00;3.70;;;22.50;99.90;;;;;;4996858;28;20644;-77
2023/07/10 00:26:57;;;;;;;5.50;3.63;;;22.50;99.90;;;;;;5010808;28;20303;-76
2023/07/10 00:29:31;;;;;;;5.63;3.60;;;22.50;99.90;;;;;;5008212;28;20208;-76
2023/07/10 00:32:02;;;;;;;5.13;3.93;;;22.50;99.90;;;;;;4990275;28;20642;-77
2023/07/10 00:34:29;;;;;;;4.73;3.57;;;22.50;99.90;;;;;;4989525;28;20224;-76
2023/07/10 00:36:57;;;;;;;5.40;3.70;;;22.50;99.90;;;;;;4993843;28;20196;-76
2023/07/10 00:39:26;;;;;;;5.67;3.77;;;22.50;99.90;;;;;;4992543;28;20204;-77
2023/07/10 00:41:56;;;;;;;5.50;4.40;;;22.40;99.90;;;;;;4993389;28;20248;-76
2023/07/10 00:44:30;;;;;;;4.80;3.67;;;22.40;99.90;;;;;;5012608;28;20295;-77
2023/07/10 00:47:00;;;;;;;4.83;4.10;;;22.30;99.90;;;;;;4991798;28;20633;-77
2023/07/10 00:49:34;;;;;;;5.97;3.90;;;22.30;99.90;;;;;;4989268;28;20270;-77
2023/07/10 00:52:10;;;;;;;4.73;3.87;;;22.20;99.90;;;;;;5007531;28;20255;-77
2023/07/10 00:54:41;;;;;;;4.20;3.50;;;22.20;99.90;;;;;;5010263;28;20200;-77
2023/07/10 00:57:15;;;;;;;4.87;3.77;;;22.10;99.90;;;;;;4991802;28;20211;-77
2023/07/10 00:59:43;;;;;;;7.23;6.63;;;22.10;99.90;;;;;;5008761;28;20683;-77
2023/07/10 01:02:19;;;;;;;5.20;3.80;;;22.00;99.90;;;;;;4990783;28;20259;-77
2023/07/10 01:04:52;;;;;;;4.87;3.77;;;22.00;99.90;;;;;;4991911;28;20773;-77
2023/07/10 01:07:22;;;;;;;4.97;3.80;;;21.90;99.90;;;;;;4993572;28;20224;-77
2023/07/10 01:09:53;;;;;;;6.00;4.30;;;21.90;99.90;;;;;;4989127;28;20214;-77
2023/07/10 01:12:21;;;;;;;6.20;4.30;;;21.80;99.90;;;;;;4995228;28;20212;-77
2023/07/10 01:14:49;;;;;;;5.80;4.30;;;21.70;99.90;;;;;;4991734;28;20231;-77
2023/07/10 01:17:17;;;;;;;4.83;3.90;;;21.70;99.90;;;;;;4990998;28;20196;-76
2023/07/10 01:19:45;;;;;;;7.07;3.87;;;21.70;99.90;;;;;;5008241;28;20247;-77
2023/07/10 01:22:15;;;;;;;5.40;4.23;;;21.70;99.90;;;;;;4989066;28;20201;-77
2023/07/10 01:24:42;;;;;;;5.40;4.37;;;21.70;99.90;;;;;;4989938;28;20206;-77
2023/07/10 01:27:13;;;;;;;5.43;3.80;;;21.70;99.90;;;;;;4993801;28;20270;-76
2023/07/10 01:29:43;;;;;;;6.70;4.60;;;21.60;99.90;;;;;;4990267;28;20825;-77
2023/07/10 01:32:13;;;;;;;6.37;4.00;;;21.60;99.90;;;;;;5006537;28;20679;-76
2023/07/10 01:34:42;;;;;;;6.07;4.37;;;21.40;99.90;;;;;;4988634;28;20204;-77
2023/07/10 01:37:10;;;;;;;5.73;3.97;;;21.30;99.90;;;;;;5010483;28;20722;-77
2023/07/10 01:39:42;;;;;;;6.00;4.30;;;21.30;99.90;;;;;;4991517;28;20680;-76
2023/07/10 01:42:09;;;;;;;5.57;4.30;;;21.30;99.90;;;;;;4990040;28;20201;-76
2023/07/10 01:44:40;;;;;;;5.47;4.17;;;21.20;99.90;;;;;;4993194;28;20209;-77
2023/07/10 01:47:09;;;;;;;6.23;5.63;;;21.20;99.90;;;;;;5008263;28;20212;-77
2023/07/10 01:49:39;;;;;;;5.70;4.03;;;21.20;99.90;;;;;;5006676;28;20193;-77
2023/07/10 01:52:09;;;;;;;5.90;4.00;;;21.20;99.90;;;;;;4988207;28;20223;-77
2023/07/10 01:54:35;;;;;;;6.30;4.17;;;21.30;99.90;;;;;;4988186;28;20660;-77
2023/07/10 01:57:04;;;;;;;4.50;3.53;;;21.30;99.90;;;;;;4987643;28;20204;-76
2023/07/10 01:59:32;;;;;;;4.80;3.80;;;21.30;99.90;;;;;;4990531;28;20189;-76
2023/07/10 02:01:59;;;;;;;5.03;3.87;;;21.30;99.90;;;;;;5007872;28;20208;-77
2023/07/10 02:04:27;;;;;;;4.10;3.67;;;21.30;99.90;;;;;;5010069;28;20253;-76
2023/07/10 02:06:54;;;;;;;3.70;3.30;;;21.30;99.90;;;;;;4989416;28;20251;-77
2023/07/10 02:09:22;;;;;;;5.00;3.67;;;21.30;99.90;;;;;;5012519;28;20207;-77
2023/07/10 02:11:50;;;;;;;4.10;3.50;;;21.30;99.90;;;;;;4990700;28;20209;-77
2023/07/10 02:14:19;;;;;;;5.07;4.23;;;21.30;99.90;;;;;;4989205;28;20267;-76
2023/07/10 02:16:46;;;;;;;4.97;3.97;;;21.30;99.90;;;;;;4988657;28;20249;-76
2023/07/10 02:19:14;;;;;;;4.93;3.97;;;21.30;99.90;;;;;;4985745;28;20734;-76
2023/07/10 02:21:41;;;;;;;5.00;4.00;;;21.30;99.90;;;;;;4975551;28;20201;-76
2023/07/10 02:24:08;;;;;;;4.73;3.90;;;21.30;99.90;;;;;;4975498;28;20229;-77
2023/07/10 02:26:35;;;;;;;5.47;3.83;;;21.30;99.90;;;;;;4975699;28;20224;-77
2023/07/10 02:29:02;;;;;;;6.30;4.23;;;21.30;99.90;;;;;;5001071;28;20271;-77
2023/07/10 02:31:31;;;;;;;5.53;4.03;;;21.30;99.90;;;;;;4992451;28;20559;-75
2023/07/10 02:33:58;;;;;;;6.13;4.00;;;21.30;99.90;;;;;;4991440;28;20713;-76
2023/07/10 02:36:26;;;;;;;4.43;3.87;;;21.30;99.90;;;;;;5011888;28;20211;-77
2023/07/10 02:38:54;;;;;;;7.80;4.50;;;21.30;99.90;;;;;;4990697;28;20193;-77
2023/07/10 02:41:21;;;;;;;5.07;4.20;;;21.20;99.90;;;;;;4989161;28;20553;-79
2023/07/10 02:43:47;;;;;;;6.80;4.67;;;21.20;99.90;;;;;;4986234;28;20252;-77
2023/07/10 02:46:14;;;;;;;5.40;4.00;;;21.20;99.90;;;;;;5007600;28;20650;-77
2023/07/10 02:48:42;;;;;;;6.73;4.33;;;21.20;99.90;;;;;;4985558;28;20745;-77
2023/07/10 02:51:09;;;;;;;5.63;4.00;;;21.20;99.90;;;;;;4986130;28;20225;-79
2023/07/10 02:53:36;;;;;;;5.63;3.97;;;21.20;99.90;;;;;;4990560;28;20274;-78
2023/07/10 02:56:03;;;;;;;6.87;4.43;;;21.20;99.90;;;;;;5001326;28;20193;-78
2023/07/10 02:58:30;;;;;;;5.50;4.23;;;21.20;99.90;;;;;;4976433;28;20676;-78
2023/07/10 03:00:59;;;;;;;7.37;4.10;;;21.30;99.90;;;;;;4990056;28;20481;-77
2023/07/10 03:03:26;;;;;;;5.30;4.37;;;21.20;99.90;;;;;;4985537;28;20237;-78
2023/07/10 03:05:55;;;;;;;5.67;3.93;;;21.30;99.90;;;;;;4985577;28;20236;-78
2023/07/10 03:08:22;;;;;;;4.17;3.63;;;21.30;99.90;;;;;;4974069;28;20754;-78
2023/07/10 03:10:49;;;;;;;5.30;4.30;;;21.30;99.90;;;;;;4979951;28;20206;-79
2023/07/10 03:13:16;;;;;;;4.60;3.80;;;21.30;99.90;;;;;;4969306;28;20257;-77
2023/07/10 03:15:42;;;;;;;5.23;4.10;;;21.30;99.90;;;;;;4981381;28;20668;-78
2023/07/10 03:18:09;;;;;;;5.03;4.10;;;21.30;99.90;;;;;;4977653;28;20220;-79
2023/07/10 03:20:40;;;;;;;7.40;5.30;;;21.30;99.90;;;;;;5001603;28;20600;-78
2023/07/10 03:23:07;;;;;;;6.70;4.23;;;21.20;99.90;;;;;;4979971;28;20667;-79
2023/07/10 03:25:35;;;;;;;5.57;4.20;;;21.30;99.90;;;;;;5010016;28;20577;-79
2023/07/10 03:28:02;;;;;;;5.97;4.17;;;21.20;99.90;;;;;;4987525;28;20240;-78
2023/07/10 03:30:28;;;;;;;5.30;4.47;;;21.20;99.90;;;;;;5015331;28;20593;-79
2023/07/10 03:32:55;;;;;;;6.00;3.67;;;21.20;99.90;;;;;;5014965;28;20283;-78
2023/07/10 03:35:22;;;;;;;5.17;4.30;;;21.20;99.90;;;;;;4995392;28;20194;-78
2023/07/10 03:37:49;;;;;;;4.13;3.43;;;21.30;99.90;;;;;;4997626;28;20256;-79
2023/07/10 03:40:17;;;;;;;3.70;3.33;;;21.30;99.90;;;;;;5006497;28;20193;-77
2023/07/10 03:42:44;;;;;;;4.37;3.53;;;21.40;99.90;;;;;;4990467;28;20244;-77
2023/07/10 03:45:11;;;;;;;5.10;3.67;;;21.40;99.90;;;;;;5011160;28;20274;-76
2023/07/10 03:47:38;;;;;;;5.40;3.83;;;21.40;99.90;;;;;;5004022;28;20700;-76
2023/07/10 03:50:07;;;;;;;5.17;4.00;;;21.40;99.90;;;;;;4988017;28;20576;-76
2023/07/10 03:52:33;;;;;;;5.40;3.73;;;21.50;99.90;;;;;;5006309;28;20652;-76
2023/07/10 03:55:00;;;;;;;4.20;3.70;;;21.50;99.90;;;;;;5010585;28;20254;-76
2023/07/10 03:57:28;;;;;;;5.70;4.17;;;21.50;99.90;;;;;;4991163;28;20204;-76
2023/07/10 03:59:55;;;;;;;5.20;4.70;;;21.60;99.90;;;;;;4991218;28;20201;-76
2023/07/10 04:02:22;;;;;;;4.50;4.10;;;21.60;99.90;;;;;;4994142;28;20304;-76
2023/07/10 04:04:49;;;;;;;5.93;4.40;;;21.60;99.90;;;;;;5000960;28;20205;-76
2023/07/10 04:07:18;;;;;;;5.03;3.97;;;21.60;99.90;;;;;;4986045;28;20224;-76
2023/07/10 04:09:45;;;;;;;5.33;4.00;;;21.70;99.90;;;;;;4984432;28;20299;-76
2023/07/10 04:12:12;;;;;;;4.63;4.17;;;21.70;99.90;;;;;;4991838;28;20288;-76
2023/07/10 04:14:40;;;;;;;4.43;3.93;;;21.70;99.90;;;;;;5003905;28;20208;-76
2023/07/10 04:17:07;;;;;;;4.37;3.53;;;21.70;99.90;;;;;;5005415;28;20248;-76
2023/07/10 04:19:34;;;;;;;4.17;3.67;;;21.70;99.90;;;;;;4988819;28;20683;-76
2023/07/10 04:22:01;;;;;;;4.37;3.60;;;21.70;99.90;;;;;;5000875;28;20275;-76
2023/07/10 04:24:27;;;;;;;4.17;3.57;;;21.80;99.90;;;;;;4997814;28;20656;-76
2023/07/10 04:26:54;;;;;;;4.70;3.47;;;21.80;99.90;;;;;;4990890;28;20742;-76
2023/07/10 04:29:21;;;;;;;5.97;4.20;;;21.80;99.90;;;;;;4987013;28;20255;-76
2023/07/10 04:31:49;;;;;;;4.10;3.70;;;21.80;99.90;;;;;;5004677;28;20197;-76
2023/07/10 04:34:16;;;;;;;5.03;3.63;;;21.90;99.90;;;;;;5008011;28;20229;-76
2023/07/10 04:36:43;;;;;;;5.33;4.03;;;21.90;99.90;;;;;;5006619;28;20200;-75
2023/07/10 04:39:10;;;;;;;5.20;4.27;;;21.90;99.90;;;;;;5007443;28;20284;-76
2023/07/10 04:41:38;;;;;;;4.53;3.73;;;21.90;99.90;;;;;;5008796;28;20201;-76
2023/07/10 04:44:05;;;;;;;5.17;3.90;;;21.90;99.90;;;;;;5006186;28;20587;-77
2023/07/10 04:46:32;;;;;;;5.50;4.10;;;21.90;99.90;;;;;;4999743;28;20643;-76
2023/07/10 04:49:00;;;;;;;4.70;3.30;;;22.00;99.90;;;;;;4997397;28;20209;-76
2023/07/10 04:51:27;;;;;;;5.20;3.97;;;22.00;99.90;;;;;;5004894;28;20225;-76
2023/07/10 04:53:54;;;;;;;4.37;3.70;;;22.00;99.90;;;;;;4979297;28;20240;-76
2023/07/10 04:56:20;;;;;;;6.20;4.20;;;22.00;99.90;;;;;;5003259;28;20228;-76
2023/07/10 04:58:52;;;;;;;4.77;4.10;;;22.00;99.90;;;;;;5007442;28;20201;-76
2023/07/10 05:01:21;;;;;;;4.23;3.83;;;22.00;99.90;;;;;;4987598;28;20198;-76
2023/07/10 05:03:48;;;;;;;7.50;6.80;;;22.10;99.90;;;;;;4985686;28;20275;-76
2023/07/10 05:06:17;;;;;;;7.83;7.13;;;22.10;99.90;;;;;;5000716;28;20585;-76
2023/07/10 05:08:44;;;;;;;7.10;6.50;;;22.20;99.90;;;;;;4988230;28;20665;-76
2023/07/10 05:11:11;;;;;;;5.10;3.70;;;22.30;99.90;;;;;;4987387;28;20211;-76
2023/07/10 05:13:38;;;;;;;7.57;6.70;;;22.30;99.90;;;;;;4982947;28;20266;-76
2023/07/10 05:16:05;;;;;;;7.50;6.80;;;22.40;99.90;;;;;;4994842;28;20686;-76
2023/07/10 05:18:32;;;;;;;5.80;4.27;;;22.40;99.90;;;;;;5000498;28;20208;-76
2023/07/10 05:21:00;;;;;;;7.10;4.77;;;22.40;99.90;;;;;;5004579;28;20635;-76
2023/07/10 05:23:28;;;;;;;7.50;4.63;;;22.40;99.90;;;;;;4994295;28;20220;-76
2023/07/10 05:26:00;;;;;;;5.23;3.80;;;22.40;99.90;;;;;;4986503;28;20200;-76
2023/07/10 05:28:27;;;;;;;5.43;4.93;;;22.30;99.90;;;;;;4990082;28;20224;-76
2023/07/10 05:30:54;;;;;;;7.70;6.27;;;22.30;99.90;;;;;;5008372;28;20205;-76
2023/07/10 05:33:21;;;;;;;7.57;6.47;;;22.30;99.90;;;;;;5011098;28;20267;-76
2023/07/10 05:35:50;;;;;;;6.97;4.83;;;22.40;99.90;;;;;;4993769;28;20270;-76
2023/07/10 05:38:17;;;;;;;8.47;6.07;;;22.50;99.90;;;;;;5005423;28;20192;-76
2023/07/10 05:40:45;;;;;;;6.60;6.00;;;22.70;99.90;;;;;;5004454;28;20200;-76
2023/07/10 05:43:11;;;;;;;7.20;6.60;;;23.00;99.90;;;;;;4985460;28;20280;-76
2023/07/10 05:45:38;;;;;;;7.07;4.20;;;23.20;99.90;;;;;;5002226;28;20623;-76
2023/07/10 05:48:06;;;;;;;6.23;4.60;;;23.30;99.90;;;;;;5003518;28;20200;-76
2023/07/10 05:50:33;;;;;;;6.03;4.83;;;23.40;99.90;;;;;;4991875;28;20193;-76
2023/07/10 05:53:00;;;;;;;6.23;4.40;;;23.40;99.90;;;;;;5007130;28;20726;-76
2023/07/10 05:55:26;;;;;;;4.87;4.37;;;23.40;99.90;;;;;;4987360;28;20638;-76
2023/07/10 05:57:55;;;;;;;4.80;3.83;;;23.40;99.90;;;;;;4989880;28;20737;-76
2023/07/10 06:00:22;;;;;;;6.33;4.73;;;23.30;99.90;;;;;;4988664;28;20259;-76
2023/07/10 06:02:48;;;;;;;8.10;7.30;;;23.20;99.90;;;;;;5005375;28;20682;-76
2023/07/10 06:05:15;;;;;;;5.67;4.67;;;23.10;99.90;;;;;;5001864;28;20197;-76
2023/07/10 06:07:42;;;;;;;9.87;5.00;;;23.10;99.90;;;;;;5003900;28;20205;-76
2023/07/10 06:10:09;;;;;;;8.10;7.30;;;23.20;99.90;;;;;;5008545;28;20220;-76
2023/07/10 06:12:36;;;;;;;6.63;5.43;;;23.30;99.90;;;;;;4966868;28;20271;-76
2023/07/10 06:15:05;;;;;;;6.20;4.40;;;23.50;99.90;;;;;;4991292;28;20212;-76
2023/07/10 06:17:31;;;;;;;8.00;4.87;;;23.80;99.90;;;;;;4999812;28;20204;-76
2023/07/10 06:19:58;;;;;;;6.10;4.60;;;24.10;99.90;;;;;;4974337;28;20254;-76
2023/07/10 06:22:25;;;;;;;8.07;7.27;;;24.50;99.90;;;;;;4991396;28;20255;-76
2023/07/10 06:24:52;;;;;;;7.03;6.20;;;24.80;99.90;;;;;;4991748;28;20201;-76
2023/07/10 06:27:19;;;;;;;9.27;8.37;;;25.00;99.90;;;;;;4991493;28;20225;-76
2023/07/10 06:29:45;;;;;;;9.23;7.93;;;25.20;99.90;;;;;;5007549;28;20275;-76
2023/07/10 06:32:14;;;;;;;11.37;8.97;;;25.30;99.90;;;;;;4993459;28;20287;-76
2023/07/10 06:34:40;;;;;;;7.43;6.60;;;25.30;99.90;;;;;;4987563;28;20209;-76
2023/07/10 06:37:07;;;;;;;8.30;4.50;;;25.30;99.90;;;;;;5005899;28;20200;-76
2023/07/10 06:39:34;;;;;;;8.40;7.60;;;25.20;99.90;;;;;;5013054;28;20220;-76
2023/07/10 06:42:01;;;;;;;6.87;5.33;;;25.10;99.90;;;;;;5011250;28;20674;-76
2023/07/10 06:44:30;;;;;;;8.87;5.93;;;25.00;99.90;;;;;;4984924;28;20213;-75
2023/07/10 06:46:57;;;;;;;6.07;5.27;;;25.10;99.90;;;;;;5002629;28;20208;-76
2023/07/10 06:49:26;;;;;;;6.97;5.10;;;25.30;99.90;;;;;;5006965;28;20263;-76
2023/07/10 06:51:53;;;;;;;7.67;5.73;;;25.70;99.90;;;;;;5003634;28;20205;-77
2023/07/10 06:54:20;;;;;;;8.57;6.70;;;26.30;99.90;;;;;;5005409;28;20296;-76
2023/07/10 06:56:46;;;;;;;8.80;7.90;;;26.60;99.90;;;;;;5004251;28;20201;-77
2023/07/10 06:59:13;;;;;;;8.57;7.67;;;26.60;99.90;;;;;;4993975;28;20200;-75
2023/07/10 07:01:40;;;;;;;8.63;7.73;;;26.60;99.90;;;;;;5007887;28;20626;-76
2023/07/10 07:04:07;;;;;;;8.90;8.00;;;26.50;99.90;;;;;;5004948;28;20586;-76
2023/07/10 07:06:35;;;;;;;8.53;7.67;;;26.30;99.90;;;;;;5006805;28;20664;-77
2023/07/10 07:09:02;;;;;;;8.93;7.80;;;26.20;99.90;;;;;;5009591;28;20209;-77
2023/07/10 07:11:29;;;;;;;8.33;7.60;;;26.40;99.90;;;;;;5009090;28;20205;-77
2023/07/10 07:13:56;;;;;;;9.33;7.90;;;27.10;99.90;;;;;;5008937;28;20228;-75
2023/07/10 07:16:22;;;;;;;9.60;7.73;;;28.00;99.90;;;;;;4977763;28;20201;-77
2023/07/10 07:18:51;;;;;;;9.90;8.13;;;28.20;99.90;;;;;;4983209;28;20200;-77
2023/07/10 07:21:17;;;;;;;9.00;7.03;;;28.10;99.90;;;;;;4988795;28;20204;-77
2023/07/10 07:23:46;;;;;;;8.43;7.30;;;28.00;99.90;;;;;;5012285;28;20248;-77
2023/07/10 07:26:13;;;;;;;8.83;7.93;;;28.00;99.90;;;;;;5005599;28;20234;-75
2023/07/10 07:28:40;;;;;;;8.10;7.30;;;28.00;99.90;;;;;;4993295;28;20297;-78
2023/07/10 07:31:07;;;;;;;8.30;7.37;;;28.50;99.90;;;;;;5009006;28;20251;-77
2023/07/10 07:33:34;;;;;;;7.80;7.00;;;28.40;99.90;;;;;;5007644;28;20228;-76
2023/07/10 07:36:02;;;;;;;7.83;7.13;;;28.20;99.90;;;;;;4990218;28;20228;-76
2023/07/10 07:38:29;;;;;;;11.33;7.13;;;28.10;99.90;;;;;;5014426;28;20197;-77
2023/07/10 07:40:59;;;;;;;8.77;6.67;;;28.80;99.90;;;;;;4986762;28;20213;-76
2023/07/10 07:43:26;;;;;;;6.93;6.13;;;29.80;99.90;;;;;;5011609;28;20291;-77
2023/07/10 07:45:54;;;;;;;7.57;6.83;;;30.30;99.90;;;;;;5008155;28;20197;-77
2023/07/10 07:48:22;;;;;;;7.10;6.40;;;30.20;99.90;;;;;;5005353;28;20206;-77
2023/07/10 07:50:57;;;;;;;7.40;6.33;;;30.40;99.90;;;;;;5010483;28;20275;-76
2023/07/10 07:53:23;;;;;;;7.40;6.33;;;30.90;99.90;;;;;;5010102;28;20275;-77
2023/07/10 07:55:50;;;;;;;7.90;6.80;;;31.20;99.90;;;;;;4991025;28;20201;-78
2023/07/10 07:58:18;;;;;;;7.20;6.53;;;31.50;99.90;;;;;;4983556;28;20213;-77
2023/07/10 08:00:45;;;;;;;8.33;6.43;;;31.60;99.90;;;;;;4983387;28;20252;-79
2023/07/10 08:03:13;;;;;;;8.83;7.07;;;31.80;99.90;;;;;;5001730;28;20279;-78
2023/07/10 08:05:40;;;;;;;6.87;5.87;;;31.70;99.90;;;;;;4999985;28;20293;-78
2023/07/10 08:08:09;;;;;;;8.03;6.20;;;32.00;99.90;;;;;;4982239;28;20205;-77
2023/07/10 08:10:37;;;;;;;7.03;6.30;;;32.20;99.90;;;;;;4992324;28;20213;-77
2023/07/10 08:13:05;;;;;;;7.73;6.10;;;32.30;99.90;;;;;;4985497;28;20229;-77
2023/07/10 08:15:33;;;;;;;6.73;6.13;;;32.60;99.90;;;;;;4998843;28;20206;-79
2023/07/10 08:18:00;;;;;;;6.60;5.93;;;32.70;99.90;;;;;;4981725;28;20201;-78
2023/07/10 08:20:27;;;;;;;7.43;6.43;;;32.90;99.90;;;;;;4978772;28;20664;-80
2023/07/10 08:22:54;;;;;;;8.43;6.50;;;33.00;98.60;;;;;;4978765;28;20257;-80
2023/07/10 08:25:20;;;;;;;8.20;6.38;;;33.00;99.10;;;;;;4996779;28;20684;-79
2023/07/10 08:27:47;;;;;;;8.90;6.43;;;33.10;98.50;;;;;;4997273;28;20259;-80
2023/07/10 08:30:15;;;;;;;7.22;6.47;;;33.20;98.80;;;;;;4979339;28;20232;-80
2023/07/10 08:32:43;;;;;;;9.38;6.82;;;33.40;98.70;;;;;;4997189;28;20221;-80
2023/07/10 08:35:10;;;;;;;8.30;6.40;;;33.60;98.60;;;;;;5004708;28;20223;-80
2023/07/10 08:37:37;;;;;;;7.20;6.38;;;33.60;98.30;;;;;;5005110;28;20691;-80
2023/07/10 08:40:04;;;;;;;7.38;6.65;;;33.70;98.30;;;;;;4997065;28;20193;-79
2023/07/10 08:42:32;;;;;;;7.43;5.90;;;34.00;98.20;;;;;;4996440;28;20244;-80
2023/07/10 08:45:01;;;;;;;7.35;6.40;;;34.10;97.30;;;;;;4995704;28;20201;-80
2023/07/10 08:47:34;;;;;;;7.10;6.25;;;34.20;97.40;;;;;;4996570;28;20500;-80
2023/07/10 08:50:11;;;;;;;6.82;6.13;;;34.20;96.90;;;;;;4996703;28;20275;-80
2023/07/10 08:52:42;;;;;;;6.80;6.10;;;34.70;96.50;;;;;;4991969;28;20283;-80
2023/07/10 08:55:14;;;;;;;7.32;6.00;;;34.80;96.20;;;;;;4979267;28;20618;-80
2023/07/10 08:57:45;;;;;;;7.28;6.38;;;34.80;96.20;;;;;;4978801;28;20201;-79
2023/07/10 09:00:15;;;;;;;7.63;6.40;;;34.80;95.10;;;;;;4996414;28;20194;-80
2023/07/10 09:02:44;;;;;;;6.88;6.20;;;34.70;95.50;;;;;;4978364;28;20269;-80
2023/07/10 09:05:21;;;;;;;7.05;6.35;;;34.60;95.50;;;;;;4974107;28;20212;-80
2023/07/10 09:07:49;;;;;;;7.40;6.50;;;34.70;95.60;;;;;;4996387;28;20201;-80
2023/07/10 09:10:20;;;;;;;6.47;5.88;;;34.90;94.90;;;;;;4978550;28;20213;-79
2023/07/10 09:12:50;;;;;;;6.85;6.15;;;34.90;94.70;;;;;;4995645;28;20309;-80
2023/07/10 09:15:25;;;;;;;9.02;6.55;;;35.10;95.40;;;;;;4994287;28;20236;-80
2023/07/10 09:18:01;;;;;;;7.75;6.45;;;35.00;95.10;;;;;;4995981;28;20676;-79
2023/07/10 09:20:29;;;;;;;6.45;5.85;;;35.00;94.80;;;;;;4978202;28;20696;-80
2023/07/10 09:23:00;;;;;;;6.50;5.90;;;35.50;94.20;;;;;;4977694;28;20584;-80
2023/07/10 09:25:28;;;;;;;8.00;6.10;;;35.60;93.50;;;;;;4978159;28;20220;-80
2023/07/10 09:27:55;;;;;;;7.05;6.35;;;35.60;93.20;;;;;;4978090;28;20232;-79
2023/07/10 09:30:40;;;;;;;6.60;5.95;;;35.20;93.50;;;;;;4982166;28;20229;-79
2023/07/10 09:33:09;;;;;;;7.13;6.43;;;35.10;93.70;;;;;;4977343;28;20232;-80
2023/07/10 09:35:42;;;;;;;6.75;6.13;;;35.10;94.90;;;;;;4994770;28;20229;-77
2023/07/10 09:38:11;;;;;;;7.97;6.50;;;34.90;94.00;;;;;;4991505;28;20197;-77
2023/07/10 09:40:43;;;;;;;6.63;6.03;;;34.60;94.60;;;;;;4992329;28;20289;-77
2023/07/10 09:43:15;;;;;;;7.18;6.25;;;34.80;95.00;;;;;;4999729;28;20745;-77
2023/07/10 09:45:44;;;;;;;6.80;6.20;;;34.60;95.20;;;;;;4974552;28;20217;-76
2023/07/10 09:48:19;;;;;;;7.55;6.22;;;34.90;95.20;;;;;;4991787;28;20193;-76
2023/07/10 09:50:49;;;;;;;7.63;6.03;;;35.10;94.20;;;;;;4974599;28;20738;-77
2023/07/10 09:53:31;;;;;;;6.85;6.20;;;35.20;94.60;;;;;;4974396;28;20312;-77
2023/07/10 09:55:58;;;;;;;7.50;6.75;;;35.30;93.00;;;;;;4974587;28;20209;-76
2023/07/10 09:58:26;;;;;;;8.82;6.65;;;34.90;94.00;;;;;;4974156;28;20197;-77
2023/07/10 10:00:53;;;;;;;7.88;6.20;;;35.00;93.30;;;;;;4974815;28;20202;-77
2023/07/10 10:03:26;;;;;;;7.10;6.22;;;35.30;94.40;;;;;;4983732;28;20249;-76
2023/07/10 10:05:57;;;;;;;7.28;6.68;;;35.20;93.70;;;;;;4975547;28;20209;-77
2023/07/10 10:08:27;;;;;;;7.03;6.32;;;35.20;94.00;;;;;;4993087;28;20232;-77
2023/07/10 10:11:03;;;;;;;6.88;6.25;;;35.50;93.90;;;;;;4992509;28;20688;-76
2023/07/10 10:13:32;;;;;;;6.90;6.30;;;35.70;93.40;;;;;;4992232;28;20228;-77
2023/07/10 10:16:04;;;;;;;7.35;6.60;;;35.80;92.50;;;;;;4992137;28;20209;-77
2023/07/10 10:18:37;;;;;;;10.18;6.38;;;35.80;93.30;;;;;;4994275;28;20584;-77
2023/07/10 10:21:06;;;;;;;6.88;6.28;;;35.80;93.60;;;;;;4995066;28;20462;-77
2023/07/10 10:23:36;;;;;;;6.93;6.22;;;35.90;92.80;;;;;;4991451;28;20695;-77
2023/07/10 10:26:30;;;;;;;7.28;6.50;;;36.00;93.30;;;;;;4991933;28;20201;-78
2023/07/10 10:29:16;;;;;;;7.03;6.40;;;36.10;92.90;;;;;;4972915;28;20444;-79
2023/07/10 10:31:51;;;;;;;7.25;6.55;;;35.90;92.60;;;;;;4995329;28;20839;-79
2023/07/10 10:34:29;;;;;;;6.72;6.13;;;35.90;93.40;;;;;;4995262;28;20225;-78
2023/07/10 10:37:10;;;;;;;7.25;6.38;;;35.90;92.50;;;;;;4995928;28;20680;-79
2023/07/10 10:39:38;;;;;;;6.80;6.20;;;36.00;92.40;;;;;;4995524;28;20239;-79
2023/07/10 10:42:16;;;;;;;6.50;5.97;;;35.90;92.10;;;;;;4994765;28;20727;-80
2023/07/10 10:44:52;;;;;;;7.78;6.22;;;35.70;92.60;;;;;;4977628;28;20205;-80
2023/07/10 10:47:30;;;;;;;6.85;6.25;;;35.50;93.00;;;;;;4976973;28;20743;-79
2023/07/10 10:50:15;;;;;;;6.88;6.28;;;35.40;93.10;;;;;;4994544;28;20213;-79
2023/07/10 10:52:52;;;;;;;7.50;6.72;;;35.40;92.80;;;;;;4991258;28;20224;-79
2023/07/10 10:55:31;;;;;;;7.00;6.43;;;35.30;92.80;;;;;;4977474;28;20208;-79
2023/07/10 10:58:12;;;;;;;6.70;6.00;;;35.20;93.40;;;;;;4977970;28;20201;-79
2023/07/10 11:00:52;;;;;;;7.93;7.13;;;34.70;94.10;;;;;;4995082;28;20204;-79
2023/07/10 11:03:26;;;;;;;7.85;6.93;;;34.20;94.20;;;;;;4977415;28;20583;-79
2023/07/10 11:05:57;;;;;;;7.53;6.82;;;34.00;95.40;;;;;;4973500;28;20205;-78
2023/07/10 11:08:32;;;;;;;6.95;6.32;;;33.80;95.10;;;;;;4990277;28;20197;-78
2023/07/10 11:11:03;;;;;;;7.25;6.60;;;33.60;94.90;;;;;;4977709;28;20225;-78
2023/07/10 11:13:34;;;;;;;6.55;6.05;;;33.70;95.50;;;;;;4992620;28;20221;-78
2023/07/10 11:16:02;;;;;;;7.28;6.57;;;34.10;95.40;;;;;;4996075;28;20256;-77
2023/07/10 11:18:30;;;;;;;7.82;7.03;;;34.30;95.10;;;;;;4995516;28;20660;-79
2023/07/10 11:20:57;;;;;;;7.28;6.60;;;34.60;95.30;;;;;;4975003;28;20198;-78
2023/07/10 11:23:36;;;;;;;7.63;6.80;;;34.50;94.90;;;;;;4979659;28;20774;-78
2023/07/10 11:26:07;;;;;;;9.23;6.57;;;34.60;95.40;;;;;;4997700;28;20193;-77
2023/07/10 11:28:34;;;;;;;7.15;6.50;;;34.80;94.60;;;;;;4979947;28;20466;-78
2023/07/10 11:31:36;;;;;;;7.13;6.43;;;34.60;94.50;;;;;;4980134;28;20244;-78
2023/07/10 11:34:35;;;;;;;6.90;6.30;;;34.60;94.70;;;;;;4993319;28;20217;-78
2023/07/10 11:37:02;;;;;;;8.38;7.13;;;34.60;94.60;;;;;;4997994;28;20671;-77
2023/07/10 11:39:34;;;;;;;7.88;6.78;;;34.70;94.60;;;;;;4979476;28;20672;-78
2023/07/10 11:42:16;;;;;;;7.10;6.40;;;34.90;94.70;;;;;;5003548;28;20192;-78
2023/07/10 11:44:52;;;;;;;7.45;6.75;;;34.80;94.20;;;;;;4989220;28;20251;-79
2023/07/10 11:47:28;;;;;;;7.65;6.95;;;34.80;94.20;;;;;;4979715;28;20205;-77
2023/07/10 11:50:22;;;;;;;8.25;7.07;;;34.70;94.60;;;;;;4974874;28;20201;-78
2023/07/10 11:53:06;;;;;;;8.82;6.88;;;34.70;94.00;;;;;;4977790;28;20225;-79
2023/07/10 11:55:43;;;;;;;7.03;6.43;;;34.40;94.40;;;;;;4991368;28;20205;-78
2023/07/10 11:58:26;;;;;;;7.80;7.05;;;34.30;94.20;;;;;;4994090;28;20208;-77
2023/07/10 12:01:13;;;;;;;7.55;6.78;;;34.00;94.00;;;;;;4976652;28;20197;-78
2023/07/10 12:03:41;;;;;;;7.55;6.82;;;33.80;94.10;;;;;;4991734;28;20225;-78
2023/07/10 12:06:15;;;;;;;6.72;6.15;;;33.80;94.50;;;;;;4995443;28;20197;-78
2023/07/10 12:08:44;;;;;;;7.15;6.47;;;34.10;94.80;;;;;;4990714;28;20616;-78
2023/07/10 12:11:29;;;;;;;6.78;6.18;;;34.00;94.70;;;;;;4984268;28;20248;-78
2023/07/10 12:14:02;;;;;;;7.03;6.38;;;33.80;94.20;;;;;;4973169;28;20498;-79
2023/07/10 12:16:29;;;;;;;6.60;6.03;;;33.80;94.50;;;;;;4970927;28;20210;-79
2023/07/10 12:19:04;;;;;;;7.82;6.85;;;33.70;94.50;;;;;;4986854;28;20838;-78
2023/07/10 12:21:32;;;;;;;6.75;6.07;;;33.40;94.20;;;;;;4974561;28;20677;-76
2023/07/10 12:24:01;;;;;;;6.82;6.22;;;33.40;94.40;;;;;;4964086;28;20237;-76
2023/07/10 12:26:30;;;;;;;7.97;7.18;;;33.40;94.30;;;;;;4985332;28;20715;-76
2023/07/10 12:28:58;;;;;;;7.38;6.68;;;33.40;93.40;;;;;;4981558;28;20209;-76
2023/07/10 12:31:26;;;;;;;8.65;7.68;;;33.40;92.80;;;;;;4985940;28;20253;-77
2023/07/10 12:33:53;;;;;;;8.05;7.25;;;33.40;92.10;;;;;;4993520;28;20798;-76
2023/07/10 12:36:25;;;;;;;7.82;7.03;;;33.40;91.40;;;;;;4990601;28;20291;-76
2023/07/10 12:38:54;;;;;;;7.30;6.70;;;33.40;91.00;;;;;;4988436;28;20205;-76
2023/07/10 12:41:22;;;;;;;7.35;6.60;;;33.40;90.90;;;;;;4969626;28;20201;-76
2023/07/10 12:43:53;;;;;;;6.82;6.13;;;33.60;91.30;;;;;;4991104;28;20746;-76
2023/07/10 12:46:24;;;;;;;7.32;6.63;;;33.70;90.60;;;;;;4988849;28;20217;-76
2023/07/10 12:48:58;;;;;;;7.22;6.53;;;33.80;90.40;;;;;;4992195;28;20317;-76
2023/07/10 12:51:28;;;;;;;6.75;6.15;;;33.90;90.00;;;;;;4991652;28;20259;-76
2023/07/10 12:53:58;;;;;;;6.85;6.10;;;34.10;89.60;;;;;;4986057;28;20218;-76
2023/07/10 12:56:28;;;;;;;6.07;5.57;;;34.00;87.60;;;;;;4972629;28;20677;-76
2023/07/10 12:58:59;;;;;;;6.43;5.82;;;33.90;86.30;;;;;;4974382;28;20198;-76
2023/07/10 13:01:32;;;;;;;6.68;6.07;;;33.80;87.10;;;;;;4988378;28;20190;-76
2023/07/10 13:04:06;;;;;;;6.47;5.97;;;33.80;87.00;;;;;;4969340;28;20221;-76
2023/07/10 13:06:34;;;;;;;6.70;6.10;;;33.90;87.00;;;;;;4975890;28;20206;-76
2023/07/10 13:09:03;;;;;;;7.40;6.32;;;34.10;84.30;;;;;;4972942;28;20280;-76
2023/07/10 13:11:30;;;;;;;6.45;5.85;;;34.30;84.40;;;;;;4983996;28;20213;-79